sensor_id;sensor_type;location;lat;lon;timestamp;temperature;humidity
4584;DHT22;2304;47.606;12.186;2023-03-04T00:02:29;5.10;69.50
4584;DHT22;2304;47.606;12.186;2023-03-04T00:07:31;5.10;70.10
4584;DHT22;2304;47.606;12.186;2023-03-04T00:12:34;5.10;70.20
4584;DHT22;2304;47.606;12.186;2023-03-04T00:17:36;5.10;70.20
4584;DHT22;2304;47.606;12.186;2023-03-04T00:22:38;5.00;69.90
4584;DHT22;2304;47.606;12.186;2023-03-04T00:27:41;5.10;69.70
4584;DHT22;2304;47.606;12.186;2023-03-04T00:32:42;5.00;69.60
4584;DHT22;2304;47.606;12.186;2023-03-04T00:37:44;4.90;69.90
4584;DHT22;2304;47.606;12.186;2023-03-04T00:42:47;4.90;70.00
4584;DHT22;2304;47.606;12.186;2023-03-04T00:47:49;4.90;70.10
4584;DHT22;2304;47.606;12.186;2023-03-04T00:52:51;4.90;70.20
4584;DHT22;2304;47.606;12.186;2023-03-04T00:57:54;4.90;70.10
4584;DHT22;2304;47.606;12.186;2023-03-04T01:02:56;4.90;69.20
4584;DHT22;2304;47.606;12.186;2023-03-04T01:07:58;4.80;69.40
4584;DHT22;2304;47.606;12.186;2023-03-04T01:13:01;4.80;69.70
4584;DHT22;2304;47.606;12.186;2023-03-04T01:18:02;4.80;69.10
4584;DHT22;2304;47.606;12.186;2023-03-04T01:23:04;4.80;69.70
4584;DHT22;2304;47.606;12.186;2023-03-04T01:28:07;4.70;69.30
4584;DHT22;2304;47.606;12.186;2023-03-04T01:33:09;4.70;69.00
4584;DHT22;2304;47.606;12.186;2023-03-04T01:38:11;4.70;68.80
4584;DHT22;2304;47.606;12.186;2023-03-04T01:43:18;4.60;68.40
4584;DHT22;2304;47.606;12.186;2023-03-04T01:48:25;4.70;68.40
4584;DHT22;2304;47.606;12.186;2023-03-04T01:53:27;4.70;68.00
4584;DHT22;2304;47.606;12.186;2023-03-04T01:58:31;4.60;68.70
4584;DHT22;2304;47.606;12.186;2023-03-04T02:03:33;4.50;68.60
4584;DHT22;2304;47.606;12.186;2023-03-04T02:08:35;4.50;68.60
4584;DHT22;2304;47.606;12.186;2023-03-04T02:13:38;4.40;68.90
4584;DHT22;2304;47.606;12.186;2023-03-04T02:18:40;4.30;69.80
4584;DHT22;2304;47.606;12.186;2023-03-04T02:23:45;4.30;69.80
4584;DHT22;2304;47.606;12.186;2023-03-04T02:28:51;4.30;70.40
4584;DHT22;2304;47.606;12.186;2023-03-04T02:33:55;4.20;70.80
4584;DHT22;2304;47.606;12.186;2023-03-04T02:39:02;4.20;70.40
4584;DHT22;2304;47.606;12.186;2023-03-04T02:44:15;4.20;70.80
4584;DHT22;2304;47.606;12.186;2023-03-04T02:49:18;4.30;70.40
4584;DHT22;2304;47.606;12.186;2023-03-04T02:54:21;4.20;69.90
4584;DHT22;2304;47.606;12.186;2023-03-04T02:59:25;4.20;69.60
4584;DHT22;2304;47.606;12.186;2023-03-04T03:04:27;4.20;69.40
4584;DHT22;2304;47.606;12.186;2023-03-04T03:09:29;4.20;69.50
4584;DHT22;2304;47.606;12.186;2023-03-04T03:14:32;4.20;69.40
4584;DHT22;2304;47.606;12.186;2023-03-04T03:19:34;4.20;69.50
4584;DHT22;2304;47.606;12.186;2023-03-04T03:24:36;4.20;69.40
4584;DHT22;2304;47.606;12.186;2023-03-04T03:29:39;4.20;69.40
4584;DHT22;2304;47.606;12.186;2023-03-04T03:34:41;4.20;69.70
4584;DHT22;2304;47.606;12.186;2023-03-04T03:39:42;4.20;69.70
4584;DHT22;2304;47.606;12.186;2023-03-04T03:44:45;4.20;69.90
4584;DHT22;2304;47.606;12.186;2023-03-04T03:49:49;4.20;70.00
4584;DHT22;2304;47.606;12.186;2023-03-04T03:54:51;4.20;70.00
4584;DHT22;2304;47.606;12.186;2023-03-04T03:59:54;4.20;70.00
4584;DHT22;2304;47.606;12.186;2023-03-04T04:04:56;4.30;69.40
4584;DHT22;2304;47.606;12.186;2023-03-04T04:09:58;4.30;69.00
4584;DHT22;2304;47.606;12.186;2023-03-04T04:15:01;4.20;69.10
4584;DHT22;2304;47.606;12.186;2023-03-04T04:20:04;4.30;69.00
4584;DHT22;2304;47.606;12.186;2023-03-04T04:25:07;4.20;69.50
4584;DHT22;2304;47.606;12.186;2023-03-04T04:30:12;4.10;69.50
4584;DHT22;2304;47.606;12.186;2023-03-04T04:35:13;4.00;70.20
4584;DHT22;2304;47.606;12.186;2023-03-04T04:40:15;4.00;70.40
4584;DHT22;2304;47.606;12.186;2023-03-04T04:45:19;3.90;70.80
4584;DHT22;2304;47.606;12.186;2023-03-04T04:50:20;4.00;70.40
4584;DHT22;2304;47.606;12.186;2023-03-04T04:55:22;4.00;70.20
4584;DHT22;2304;47.606;12.186;2023-03-04T05:00:25;3.90;70.20
4584;DHT22;2304;47.606;12.186;2023-03-04T05:05:27;3.90;70.40
4584;DHT22;2304;47.606;12.186;2023-03-04T05:10:29;3.90;70.60
4584;DHT22;2304;47.606;12.186;2023-03-04T05:15:32;3.90;70.00
4584;DHT22;2304;47.606;12.186;2023-03-04T05:20:34;3.80;69.40
4584;DHT22;2304;47.606;12.186;2023-03-04T05:25:35;3.90;69.10
4584;DHT22;2304;47.606;12.186;2023-03-04T05:30:39;3.80;69.50
4584;DHT22;2304;47.606;12.186;2023-03-04T05:35:42;3.80;69.70
4584;DHT22;2304;47.606;12.186;2023-03-04T05:40:45;3.80;69.40
4584;DHT22;2304;47.606;12.186;2023-03-04T05:45:49;3.80;69.20
4584;DHT22;2304;47.606;12.186;2023-03-04T05:50:54;3.80;69.50
4584;DHT22;2304;47.606;12.186;2023-03-04T05:55:56;3.80;69.70
4584;DHT22;2304;47.606;12.186;2023-03-04T06:01:01;3.70;71.40
4584;DHT22;2304;47.606;12.186;2023-03-04T06:06:03;3.70;71.20
4584;DHT22;2304;47.606;12.186;2023-03-04T06:11:05;3.80;70.60
4584;DHT22;2304;47.606;12.186;2023-03-04T06:16:09;3.70;71.20
4584;DHT22;2304;47.606;12.186;2023-03-04T06:21:10;3.70;72.20
4584;DHT22;2304;47.606;12.186;2023-03-04T06:26:12;3.80;72.40
4584;DHT22;2304;47.606;12.186;2023-03-04T06:31:16;3.90;73.20
4584;DHT22;2304;47.606;12.186;2023-03-04T06:36:18;3.90;73.20
4584;DHT22;2304;47.606;12.186;2023-03-04T06:41:20;4.00;72.80
4584;DHT22;2304;47.606;12.186;2023-03-04T06:46:23;4.00;72.60
4584;DHT22;2304;47.606;12.186;2023-03-04T06:51:25;4.10;72.60
4584;DHT22;2304;47.606;12.186;2023-03-04T06:56:27;4.10;72.50
4584;DHT22;2304;47.606;12.186;2023-03-04T07:01:30;4.20;72.60
4584;DHT22;2304;47.606;12.186;2023-03-04T07:06:32;4.20;72.60
4584;DHT22;2304;47.606;12.186;2023-03-04T07:11:33;4.20;73.60
4584;DHT22;2304;47.606;12.186;2023-03-04T07:16:37;4.20;74.30
4584;DHT22;2304;47.606;12.186;2023-03-04T07:21:38;4.30;74.00
4584;DHT22;2304;47.606;12.186;2023-03-04T07:26:40;4.30;74.10
4584;DHT22;2304;47.606;12.186;2023-03-04T07:31:43;4.40;73.90
4584;DHT22;2304;47.606;12.186;2023-03-04T07:36:45;4.50;73.90
4584;DHT22;2304;47.606;12.186;2023-03-04T07:41:47;4.60;74.00
4584;DHT22;2304;47.606;12.186;2023-03-04T07:46:50;4.60;74.60
4584;DHT22;2304;47.606;12.186;2023-03-04T07:51:52;4.70;74.50
4584;DHT22;2304;47.606;12.186;2023-03-04T07:56:54;4.70;74.30
4584;DHT22;2304;47.606;12.186;2023-03-04T08:01:57;4.80;74.80
4584;DHT22;2304;47.606;12.186;2023-03-04T08:06:58;4.90;75.30
4584;DHT22;2304;47.606;12.186;2023-03-04T08:12:00;4.90;75.30
4584;DHT22;2304;47.606;12.186;2023-03-04T08:17:03;5.00;75.50
4584;DHT22;2304;47.606;12.186;2023-03-04T08:22:05;5.10;75.10
4584;DHT22;2304;47.606;12.186;2023-03-04T08:27:07;5.20;75.90
4584;DHT22;2304;47.606;12.186;2023-03-04T08:32:10;5.30;75.60
4584;DHT22;2304;47.606;12.186;2023-03-04T08:37:12;5.40;75.50
4584;DHT22;2304;47.606;12.186;2023-03-04T08:42:14;5.50;75.40
4584;DHT22;2304;47.606;12.186;2023-03-04T08:47:17;5.60;74.90
4584;DHT22;2304;47.606;12.186;2023-03-04T08:52:18;5.80;74.40
4584;DHT22;2304;47.606;12.186;2023-03-04T08:57:20;5.80;73.90
4584;DHT22;2304;47.606;12.186;2023-03-04T09:02:24;6.00;74.60
4584;DHT22;2304;47.606;12.186;2023-03-04T09:07:25;6.30;76.00
4584;DHT22;2304;47.606;12.186;2023-03-04T09:12:27;6.50;75.10
4584;DHT22;2304;47.606;12.186;2023-03-04T09:17:31;6.70;72.70
4584;DHT22;2304;47.606;12.186;2023-03-04T09:22:33;6.90;72.10
4584;DHT22;2304;47.606;12.186;2023-03-04T09:27:34;7.20;71.50
4584;DHT22;2304;47.606;12.186;2023-03-04T09:32:38;8.00;71.30
4584;DHT22;2304;47.606;12.186;2023-03-04T09:37:40;8.80;68.10
4584;DHT22;2304;47.606;12.186;2023-03-04T09:42:45;8.70;66.10
4584;DHT22;2304;47.606;12.186;2023-03-04T09:47:51;8.50;65.10
4584;DHT22;2304;47.606;12.186;2023-03-04T09:53:03;8.50;66.30
4584;DHT22;2304;47.606;12.186;2023-03-04T09:58:24;8.60;65.60
4584;DHT22;2304;47.606;12.186;2023-03-04T10:03:36;8.70;65.90
4584;DHT22;2304;47.606;12.186;2023-03-04T10:08:46;8.90;64.70
4584;DHT22;2304;47.606;12.186;2023-03-04T10:13:59;9.20;64.50
4584;DHT22;2304;47.606;12.186;2023-03-04T10:19:19;9.20;63.60
4584;DHT22;2304;47.606;12.186;2023-03-04T10:24:26;9.10;63.70
4584;DHT22;2304;47.606;12.186;2023-03-04T10:29:30;8.90;64.00
4584;DHT22;2304;47.606;12.186;2023-03-04T10:34:34;8.80;64.30
4584;DHT22;2304;47.606;12.186;2023-03-04T10:39:38;9.00;64.90
4584;DHT22;2304;47.606;12.186;2023-03-04T10:44:41;9.00;64.30
4584;DHT22;2304;47.606;12.186;2023-03-04T10:49:51;9.80;63.50
4584;DHT22;2304;47.606;12.186;2023-03-04T10:54:54;10.30;61.60
4584;DHT22;2304;47.606;12.186;2023-03-04T10:59:58;10.80;60.50
4584;DHT22;2304;47.606;12.186;2023-03-04T11:05:16;11.30;59.30
4584;DHT22;2304;47.606;12.186;2023-03-04T11:10:20;11.80;58.00
4584;DHT22;2304;47.606;12.186;2023-03-04T11:15:24;12.00;57.70
4584;DHT22;2304;47.606;12.186;2023-03-04T11:20:31;12.30;55.50
4584;DHT22;2304;47.606;12.186;2023-03-04T11:25:35;12.60;54.60
4584;DHT22;2304;47.606;12.186;2023-03-04T11:30:41;12.80;52.90
4584;DHT22;2304;47.606;12.186;2023-03-04T11:35:57;13.10;52.60
4584;DHT22;2304;47.606;12.186;2023-03-04T11:41:03;13.30;50.80
4584;DHT22;2304;47.606;12.186;2023-03-04T11:46:27;13.30;50.20
4584;DHT22;2304;47.606;12.186;2023-03-04T11:51:37;13.30;49.90
4584;DHT22;2304;47.606;12.186;2023-03-04T11:56:47;13.40;49.50
4584;DHT22;2304;47.606;12.186;2023-03-04T12:01:58;13.40;48.90
4584;DHT22;2304;47.606;12.186;2023-03-04T12:07:11;13.40;48.70
4584;DHT22;2304;47.606;12.186;2023-03-04T12:12:26;13.60;48.40
4584;DHT22;2304;47.606;12.186;2023-03-04T12:17:40;13.60;48.60
4584;DHT22;2304;47.606;12.186;2023-03-04T12:22:48;13.70;48.10
4584;DHT22;2304;47.606;12.186;2023-03-04T12:27:59;13.80;48.40
4584;DHT22;2304;47.606;12.186;2023-03-04T12:33:11;13.80;47.90
4584;DHT22;2304;47.606;12.186;2023-03-04T12:38:30;13.60;48.40
4584;DHT22;2304;47.606;12.186;2023-03-04T12:43:39;13.60;47.80
4584;DHT22;2304;47.606;12.186;2023-03-04T12:48:47;13.60;47.70
4584;DHT22;2304;47.606;12.186;2023-03-04T12:54:01;13.60;48.40
4584;DHT22;2304;47.606;12.186;2023-03-04T12:59:09;13.60;47.50
4584;DHT22;2304;47.606;12.186;2023-03-04T13:04:18;13.40;46.80
4584;DHT22;2304;47.606;12.186;2023-03-04T13:09:28;13.60;47.10
4584;DHT22;2304;47.606;12.186;2023-03-04T13:14:32;13.50;45.40
4584;DHT22;2304;47.606;12.186;2023-03-04T13:19:49;13.70;46.20
4584;DHT22;2304;47.606;12.186;2023-03-04T13:24:53;13.90;45.60
4584;DHT22;2304;47.606;12.186;2023-03-04T13:29:56;13.80;44.50
4584;DHT22;2304;47.606;12.186;2023-03-04T13:34:57;13.90;44.60
4584;DHT22;2304;47.606;12.186;2023-03-04T13:40:35;13.80;44.00
4584;DHT22;2304;47.606;12.186;2023-03-04T13:45:37;13.70;44.60
4584;DHT22;2304;47.606;12.186;2023-03-04T13:50:43;13.70;44.40
4584;DHT22;2304;47.606;12.186;2023-03-04T13:56:05;13.60;44.30
4584;DHT22;2304;47.606;12.186;2023-03-04T14:01:21;13.30;44.10
4584;DHT22;2304;47.606;12.186;2023-03-04T14:06:25;13.40;44.10
4584;DHT22;2304;47.606;12.186;2023-03-04T14:11:33;13.30;45.00
4584;DHT22;2304;47.606;12.186;2023-03-04T14:16:44;13.40;44.60
4584;DHT22;2304;47.606;12.186;2023-03-04T14:21:47;13.30;44.70
4584;DHT22;2304;47.606;12.186;2023-03-04T14:27:05;13.30;44.60
4584;DHT22;2304;47.606;12.186;2023-03-04T14:32:11;13.20;45.00
4584;DHT22;2304;47.606;12.186;2023-03-04T14:37:21;13.10;45.20
4584;DHT22;2304;47.606;12.186;2023-03-04T14:42:32;13.30;45.40
4584;DHT22;2304;47.606;12.186;2023-03-04T14:47:36;13.00;45.20
4584;DHT22;2304;47.606;12.186;2023-03-04T14:52:41;12.90;45.40
4584;DHT22;2304;47.606;12.186;2023-03-04T14:57:45;12.70;45.60
4584;DHT22;2304;47.606;12.186;2023-03-04T15:02:48;12.50;45.70
4584;DHT22;2304;47.606;12.186;2023-03-04T15:07:51;12.30;46.10
4584;DHT22;2304;47.606;12.186;2023-03-04T15:12:58;12.10;46.30
4584;DHT22;2304;47.606;12.186;2023-03-04T15:18:02;12.00;46.90
4584;DHT22;2304;47.606;12.186;2023-03-04T15:23:05;11.70;47.40
4584;DHT22;2304;47.606;12.186;2023-03-04T15:28:17;11.60;47.90
4584;DHT22;2304;47.606;12.186;2023-03-04T15:33:19;11.40;48.20
4584;DHT22;2304;47.606;12.186;2023-03-04T15:38:21;11.20;48.80
4584;DHT22;2304;47.606;12.186;2023-03-04T15:43:25;10.90;49.50
4584;DHT22;2304;47.606;12.186;2023-03-04T15:48:27;10.80;49.80
4584;DHT22;2304;47.606;12.186;2023-03-04T15:53:31;10.70;50.30
4584;DHT22;2304;47.606;12.186;2023-03-04T15:58:35;10.60;50.50
4584;DHT22;2304;47.606;12.186;2023-03-04T16:03:38;10.50;50.70
4584;DHT22;2304;47.606;12.186;2023-03-04T16:08:41;10.60;50.90
4584;DHT22;2304;47.606;12.186;2023-03-04T16:13:44;10.20;50.80
4584;DHT22;2304;47.606;12.186;2023-03-04T16:18:46;10.10;51.20
4584;DHT22;2304;47.606;12.186;2023-03-04T16:23:49;9.90;51.50
4584;DHT22;2304;47.606;12.186;2023-03-04T16:28:53;9.90;51.60
4584;DHT22;2304;47.606;12.186;2023-03-04T16:33:55;9.80;51.60
4584;DHT22;2304;47.606;12.186;2023-03-04T16:38:58;9.80;51.80
4584;DHT22;2304;47.606;12.186;2023-03-04T16:44:04;9.70;51.90
4584;DHT22;2304;47.606;12.186;2023-03-04T16:49:08;9.60;52.20
4584;DHT22;2304;47.606;12.186;2023-03-04T16:54:14;9.50;52.40
4584;DHT22;2304;47.606;12.186;2023-03-04T16:59:18;9.30;52.70
4584;DHT22;2304;47.606;12.186;2023-03-04T17:04:21;9.30;52.90
4584;DHT22;2304;47.606;12.186;2023-03-04T17:09:22;9.50;53.30
4584;DHT22;2304;47.606;12.186;2023-03-04T17:14:26;9.20;53.50
4584;DHT22;2304;47.606;12.186;2023-03-04T17:19:28;9.10;54.00
4584;DHT22;2304;47.606;12.186;2023-03-04T17:24:30;9.00;54.30
4584;DHT22;2304;47.606;12.186;2023-03-04T17:29:33;8.80;54.80
4584;DHT22;2304;47.606;12.186;2023-03-04T17:34:35;8.80;55.20
4584;DHT22;2304;47.606;12.186;2023-03-04T17:39:37;8.60;55.40
4584;DHT22;2304;47.606;12.186;2023-03-04T17:44:40;8.40;55.80
4584;DHT22;2304;47.606;12.186;2023-03-04T17:49:43;8.50;56.10
4584;DHT22;2304;47.606;12.186;2023-03-04T17:54:45;8.20;56.00
4584;DHT22;2304;47.606;12.186;2023-03-04T17:59:48;7.80;56.30
4584;DHT22;2304;47.606;12.186;2023-03-04T18:04:50;7.60;56.80
4584;DHT22;2304;47.606;12.186;2023-03-04T18:09:52;7.50;56.80
4584;DHT22;2304;47.606;12.186;2023-03-04T18:14:55;7.40;56.90
4584;DHT22;2304;47.606;12.186;2023-03-04T18:19:57;7.20;57.30
4584;DHT22;2304;47.606;12.186;2023-03-04T18:24:59;7.00;57.40
4584;DHT22;2304;47.606;12.186;2023-03-04T18:30:02;7.10;57.50
4584;DHT22;2304;47.606;12.186;2023-03-04T18:35:05;6.90;57.00
4584;DHT22;2304;47.606;12.186;2023-03-04T18:40:08;6.80;57.20
4584;DHT22;2304;47.606;12.186;2023-03-04T18:45:12;6.60;57.20
4584;DHT22;2304;47.606;12.186;2023-03-04T18:50:14;6.60;57.60
4584;DHT22;2304;47.606;12.186;2023-03-04T18:55:16;6.40;57.10
4584;DHT22;2304;47.606;12.186;2023-03-04T19:00:21;6.30;57.30
4584;DHT22;2304;47.606;12.186;2023-03-04T19:05:26;6.20;57.70
4584;DHT22;2304;47.606;12.186;2023-03-04T19:10:29;5.90;57.40
4584;DHT22;2304;47.606;12.186;2023-03-04T19:15:33;5.80;58.30
4584;DHT22;2304;47.606;12.186;2023-03-04T19:20:34;5.80;58.00
4584;DHT22;2304;47.606;12.186;2023-03-04T19:25:37;5.70;57.90
4584;DHT22;2304;47.606;12.186;2023-03-04T19:30:40;5.60;57.80
4584;DHT22;2304;47.606;12.186;2023-03-04T19:35:44;5.60;57.60
4584;DHT22;2304;47.606;12.186;2023-03-04T19:40:46;5.50;57.70
4584;DHT22;2304;47.606;12.186;2023-03-04T19:45:53;5.30;57.60
4584;DHT22;2304;47.606;12.186;2023-03-04T19:50:54;5.30;57.80
4584;DHT22;2304;47.606;12.186;2023-03-04T19:55:56;5.30;57.70
4584;DHT22;2304;47.606;12.186;2023-03-04T20:00:59;5.20;57.80
4584;DHT22;2304;47.606;12.186;2023-03-04T20:06:03;5.20;57.90
4584;DHT22;2304;47.606;12.186;2023-03-04T20:11:06;5.10;58.10
4584;DHT22;2304;47.606;12.186;2023-03-04T20:16:10;5.10;58.10
4584;DHT22;2304;47.606;12.186;2023-03-04T20:21:12;5.00;58.00
4584;DHT22;2304;47.606;12.186;2023-03-04T20:26:14;5.00;58.10
4584;DHT22;2304;47.606;12.186;2023-03-04T20:31:21;5.00;58.10
4584;DHT22;2304;47.606;12.186;2023-03-04T20:36:25;5.00;59.00
4584;DHT22;2304;47.606;12.186;2023-03-04T20:41:27;4.90;58.40
4584;DHT22;2304;47.606;12.186;2023-03-04T20:46:33;4.90;58.40
4584;DHT22;2304;47.606;12.186;2023-03-04T20:51:37;4.80;58.70
4584;DHT22;2304;47.606;12.186;2023-03-04T20:56:39;4.80;58.80
4584;DHT22;2304;47.606;12.186;2023-03-04T21:01:44;4.80;58.90
4584;DHT22;2304;47.606;12.186;2023-03-04T21:06:47;4.90;58.90
4584;DHT22;2304;47.606;12.186;2023-03-04T21:11:51;4.80;58.60
4584;DHT22;2304;47.606;12.186;2023-03-04T21:16:56;4.90;58.60
4584;DHT22;2304;47.606;12.186;2023-03-04T21:21:59;4.80;58.50
4584;DHT22;2304;47.606;12.186;2023-03-04T21:27:01;4.70;58.70
4584;DHT22;2304;47.606;12.186;2023-03-04T21:32:09;4.60;58.80
4584;DHT22;2304;47.606;12.186;2023-03-04T21:37:11;4.60;59.00
4584;DHT22;2304;47.606;12.186;2023-03-04T21:42:13;4.50;59.30
4584;DHT22;2304;47.606;12.186;2023-03-04T21:47:16;4.50;59.10
4584;DHT22;2304;47.606;12.186;2023-03-04T21:52:19;4.50;59.20
4584;DHT22;2304;47.606;12.186;2023-03-04T21:57:21;4.40;59.30
4584;DHT22;2304;47.606;12.186;2023-03-04T22:02:24;4.30;59.30
4584;DHT22;2304;47.606;12.186;2023-03-04T22:07:26;4.30;59.40
4584;DHT22;2304;47.606;12.186;2023-03-04T22:12:28;4.30;59.40
4584;DHT22;2304;47.606;12.186;2023-03-04T22:17:32;4.30;59.60
4584;DHT22;2304;47.606;12.186;2023-03-04T22:22:34;4.30;59.60
4584;DHT22;2304;47.606;12.186;2023-03-04T22:27:36;4.30;59.90
4584;DHT22;2304;47.606;12.186;2023-03-04T22:32:39;4.20;59.90
4584;DHT22;2304;47.606;12.186;2023-03-04T22:37:41;4.40;60.10
4584;DHT22;2304;47.606;12.186;2023-03-04T22:42:43;4.10;60.30
4584;DHT22;2304;47.606;12.186;2023-03-04T22:47:48;4.10;60.70
4584;DHT22;2304;47.606;12.186;2023-03-04T22:52:50;4.10;60.70
4584;DHT22;2304;47.606;12.186;2023-03-04T22:57:52;4.20;60.30
4584;DHT22;2304;47.606;12.186;2023-03-04T23:02:55;4.10;60.50
4584;DHT22;2304;47.606;12.186;2023-03-04T23:07:57;4.10;60.40
4584;DHT22;2304;47.606;12.186;2023-03-04T23:12:59;4.20;61.00
4584;DHT22;2304;47.606;12.186;2023-03-04T23:18:02;4.20;60.20
4584;DHT22;2304;47.606;12.186;2023-03-04T23:23:04;4.20;60.10
4584;DHT22;2304;47.606;12.186;2023-03-04T23:28:06;4.10;60.10
4584;DHT22;2304;47.606;12.186;2023-03-04T23:33:09;4.10;60.10
4584;DHT22;2304;47.606;12.186;2023-03-04T23:38:11;4.00;60.20
4584;DHT22;2304;47.606;12.186;2023-03-04T23:43:13;4.00;60.50
4584;DHT22;2304;47.606;12.186;2023-03-04T23:48:16;4.10;60.60
4584;DHT22;2304;47.606;12.186;2023-03-04T23:53:18;4.10;60.40
4584;DHT22;2304;47.606;12.186;2023-03-04T23:58:20;4.10;60.50
